Cherry Creek, New York
Current Conditions -  °F | °C
As of 5:35 AM on Sunday 26 Oct 2014 (Local Time) from KJHW Reporting Station
Clear Clear  
Wind Chill: 39°   Ceiling: Unl
Heat Index: 45°   Visibility: 10mi
Dew Point: 30°   Wind: 12mph
Humidity: 57%   Direction: 290°WNW
Pressure: 29.73"   Gusts: NA
Location:  42.29°N, 79.1°W
Report Text: KJHW 260935Z AUTO 29010KT 10SM CLR 07/M01 A2973 RMK AO1
Loading
Personal Weather Stations






























Interactive Weather Map
Tropical Storm Tracking
New forecast layout! Learn more

10-Day Weather Forecast

Advertisements
Track Severe Weather on mobile